createdAt,value
2018-07-12T09:57:16.522Z,1023.75
2018-07-12T09:58:16.483Z,1091.25
2018-07-12T09:59:16.466Z,1085.63
2018-07-12T10:00:16.456Z,1046.25
2018-07-12T10:01:16.532Z,1018.13
2018-07-12T10:02:16.425Z,1029.38
2018-07-12T10:03:16.418Z,1018.13
2018-07-12T10:04:16.394Z,1023.75
2018-07-12T10:05:16.378Z,1057.50
2018-07-12T10:06:16.365Z,1108.13
2018-07-12T10:07:16.354Z,1147.50
2018-07-12T10:08:16.351Z,1102.50
2018-07-12T10:09:16.325Z,1057.50
2018-07-12T10:10:16.313Z,1051.88
2018-07-12T10:11:16.300Z,1074.38
2018-07-12T10:12:16.290Z,1068.75
2018-07-12T10:13:16.284Z,1113.75
2018-07-12T10:14:16.262Z,1085.63
2018-07-12T10:15:16.252Z,1136.25
2018-07-12T10:16:16.248Z,1136.25
2018-07-12T10:17:16.226Z,1153.13
2018-07-12T10:18:16.222Z,1108.13
2018-07-12T10:19:16.201Z,1068.75
2018-07-12T10:20:16.188Z,1035.00
2018-07-12T10:21:16.177Z,961.88
2018-07-12T10:22:16.166Z,939.38
2018-07-12T10:23:16.173Z,973.13
2018-07-12T10:24:16.141Z,1001.25
2018-07-12T10:25:16.129Z,933.75
2018-07-12T10:26:16.120Z,956.25
2018-07-12T10:27:16.107Z,1018.13
2018-07-12T10:28:16.097Z,1068.75
2018-07-12T10:29:16.094Z,1068.75
2018-07-12T10:30:16.073Z,1119.38
2018-07-12T10:31:16.061Z,1085.63
2018-07-12T10:32:16.048Z,1091.25
2018-07-12T10:33:16.041Z,1074.38
2018-07-12T10:34:16.044Z,1136.25
2018-07-12T10:35:16.017Z,1220.63
2018-07-12T10:36:16.005Z,1096.88
2018-07-12T10:37:15.991Z,1006.88
2018-07-12T10:38:15.981Z,939.38
2018-07-12T10:39:15.970Z,990.00
2018-07-12T10:40:15.978Z,1108.13
2018-07-12T10:41:15.948Z,1231.88
2018-07-12T10:42:15.937Z,1260.00
2018-07-12T10:43:15.925Z,1265.63
2018-07-12T10:44:15.913Z,1260.00
2018-07-12T10:45:15.902Z,1248.75
2018-07-12T10:46:15.901Z,1248.75
2018-07-12T10:47:15.883Z,1203.75
2018-07-12T10:48:15.868Z,1113.75
2018-07-12T10:49:15.857Z,1051.88
2018-07-12T10:50:15.847Z,973.13
2018-07-12T10:51:15.845Z,905.63
2018-07-12T10:52:15.825Z,843.75
2018-07-12T10:53:15.810Z,849.38
2018-07-12T10:54:15.801Z,894.38
2018-07-12T10:55:15.791Z,945.00
2018-07-12T10:56:15.778Z,978.75
2018-07-12T10:57:15.785Z,1035.00
2018-07-12T10:58:15.755Z,1029.38
2018-07-12T10:59:15.744Z,1068.75
2018-07-12T11:00:15.736Z,1136.25
2018-07-12T11:01:15.720Z,1158.75
2018-07-12T11:02:15.710Z,1141.88
2018-07-12T11:03:15.708Z,1085.63
2018-07-12T11:04:15.690Z,1085.63
2018-07-12T11:05:15.674Z,1125.00
2018-07-12T11:06:15.665Z,1125.00
2018-07-12T11:07:15.653Z,1181.25
2018-07-12T11:08:15.657Z,1226.25
2018-07-12T11:09:15.631Z,1231.88
2018-07-12T11:10:15.622Z,1119.38
2018-07-12T11:11:15.612Z,1006.88
2018-07-12T11:12:15.597Z,945.00
2018-07-12T11:13:15.585Z,911.25
2018-07-12T11:14:15.585Z,916.88
2018-07-12T11:15:15.565Z,1012.50
2018-07-12T11:16:15.552Z,1029.38
2018-07-12T11:17:15.546Z,1102.50
2018-07-12T11:18:15.529Z,1096.88
2018-07-12T11:19:15.539Z,1085.63
2018-07-12T11:20:15.508Z,1046.25
2018-07-12T11:21:15.586Z,1023.75
2018-07-12T11:22:15.486Z,1113.75
2018-07-12T11:23:15.474Z,1198.13
2018-07-12T11:24:15.463Z,1226.25
2018-07-12T11:25:15.463Z,1276.88
2018-07-12T11:26:15.440Z,1186.88
2018-07-12T11:27:15.431Z,1096.88
2018-07-12T11:28:15.470Z,1023.75
2018-07-12T11:29:15.406Z,1119.38
2018-07-12T11:30:15.436Z,1158.75
2018-07-12T11:31:15.398Z,1147.50
2018-07-12T11:32:15.380Z,1237.50
2018-07-12T11:33:15.364Z,1215.00
2018-07-12T11:34:15.347Z,1186.88
2018-07-12T11:35:15.350Z,1181.25
2018-07-12T11:36:15.362Z,1192.50
2018-07-12T11:37:15.324Z,1203.75
2018-07-12T11:38:15.310Z,1231.88
2018-07-12T11:39:15.300Z,1260.00
2018-07-12T11:40:15.290Z,1282.50
2018-07-12T11:41:15.297Z,1271.25
2018-07-12T11:42:15.270Z,1243.13
2018-07-12T11:43:15.259Z,1198.13
2018-07-12T11:44:15.250Z,1215.00
2018-07-12T11:45:15.240Z,1125.00
2018-07-12T11:46:15.230Z,1023.75
2018-07-12T11:47:15.237Z,911.25
2018-07-12T11:48:15.210Z,900.00
2018-07-12T11:49:15.201Z,900.00
2018-07-12T11:50:15.189Z,871.88
2018-07-12T11:51:15.181Z,832.50
2018-07-12T11:52:15.169Z,849.38
2018-07-12T11:53:15.177Z,933.75
2018-07-12T11:54:15.155Z,1102.50
2018-07-12T11:55:15.140Z,1136.25
2018-07-12T11:56:15.129Z,1046.25
2018-07-12T11:57:15.118Z,1080.00
2018-07-12T11:58:15.123Z,1136.25
2018-07-12T11:59:15.096Z,1265.63
2018-07-12T12:00:15.088Z,1366.88
2018-07-12T12:01:15.077Z,1366.88
2018-07-12T12:02:15.066Z,1299.38
2018-07-12T12:03:15.056Z,1209.38
2018-07-12T12:04:15.072Z,1175.63
2018-07-12T12:05:15.035Z,1181.25
2018-07-12T12:06:15.026Z,1265.63
2018-07-12T12:07:15.020Z,1350.00
2018-07-12T12:08:15.004Z,1305.00
2018-07-12T12:09:15.012Z,1265.63
2018-07-12T12:10:14.984Z,1164.38
2018-07-12T12:11:14.972Z,1125.00
2018-07-12T12:12:14.972Z,956.25
2018-07-12T12:13:14.954Z,911.25
2018-07-12T12:14:14.942Z,866.25
2018-07-12T12:15:14.946Z,933.75
2018-07-12T12:16:14.922Z,967.50
2018-07-12T12:17:14.911Z,1001.25
2018-07-12T12:18:14.900Z,1035.00
2018-07-12T12:19:14.892Z,1023.75
2018-07-12T12:20:14.897Z,1029.38
2018-07-12T12:21:14.870Z,1040.63
2018-07-12T12:22:14.862Z,1040.63
2018-07-12T12:23:14.851Z,1046.25
2018-07-12T12:24:14.840Z,1063.13
2018-07-12T12:25:14.830Z,1074.38
2018-07-12T12:26:14.829Z,1119.38
2018-07-12T12:27:14.810Z,1096.88
2018-07-12T12:28:14.799Z,1215.00
2018-07-12T12:29:14.790Z,1276.88
2018-07-12T12:30:14.779Z,1355.63
2018-07-12T12:31:14.779Z,1395.00
2018-07-12T12:32:14.763Z,1378.13
2018-07-12T12:33:14.754Z,1406.25
2018-07-12T12:34:14.741Z,1383.75
2018-07-12T12:35:14.729Z,1378.13
2018-07-12T12:36:14.737Z,1361.25
2018-07-12T12:37:14.709Z,1344.38
2018-07-12T12:38:14.700Z,1288.13
2018-07-12T12:39:14.691Z,1428.75
2018-07-12T12:40:14.685Z,1507.50
2018-07-12T12:41:14.671Z,1552.50
2018-07-12T12:42:14.680Z,1586.25
2018-07-12T12:43:14.654Z,1693.13
2018-07-12T12:44:14.647Z,1766.25
2018-07-12T12:45:14.634Z,1783.13
2018-07-12T12:46:14.626Z,1749.38
2018-07-12T12:47:14.631Z,1681.88
2018-07-12T12:48:14.606Z,1535.63
2018-07-12T12:49:14.597Z,1535.63
2018-07-12T12:50:14.588Z,1518.75
2018-07-12T12:51:14.578Z,1479.38
2018-07-12T12:52:14.570Z,1350.00
2018-07-12T12:53:14.572Z,1254.38
2018-07-12T12:54:14.551Z,1141.88
2018-07-12T12:55:14.544Z,1057.50
2018-07-12T12:56:14.533Z,990.00
2018-07-12T12:57:14.523Z,1029.38
2018-07-12T12:58:14.534Z,1096.88
2018-07-12T12:59:14.505Z,1186.88
2018-07-12T13:00:14.521Z,1383.75
2018-07-12T13:01:14.486Z,1485.00
2018-07-12T13:02:14.477Z,1501.88
2018-07-12T13:03:14.469Z,1676.25
2018-07-12T13:04:14.469Z,1771.88
2018-07-12T13:05:14.450Z,1822.50
2018-07-12T13:06:14.441Z,1811.25
2018-07-12T13:07:14.434Z,1771.88
2018-07-12T13:08:14.422Z,1721.25
2018-07-12T13:09:14.430Z,1648.13
2018-07-12T13:10:14.408Z,1670.63
2018-07-12T13:11:14.414Z,1715.63
2018-07-12T13:12:14.387Z,1873.13
2018-07-12T13:13:14.376Z,1861.88
2018-07-12T13:14:14.367Z,1681.88
2018-07-12T13:15:14.381Z,1698.75
2018-07-12T13:16:14.351Z,1822.50
2018-07-12T13:17:14.341Z,1777.50
2018-07-12T13:18:14.332Z,1805.63
2018-07-12T13:19:14.323Z,1760.63
2018-07-12T13:20:14.317Z,1721.25
2018-07-12T13:21:14.319Z,1665.00
2018-07-12T13:22:14.298Z,1653.75
2018-07-12T13:23:14.289Z,1659.38
2018-07-12T13:24:14.281Z,1648.13
2018-07-12T13:25:14.272Z,1648.13
2018-07-12T13:26:14.280Z,1670.63
2018-07-12T13:27:14.256Z,1698.75
2018-07-12T13:28:14.247Z,2182.50
2018-07-12T13:29:14.238Z,3768.75
2018-07-12T13:30:14.230Z,4944.38
2018-07-12T13:31:14.229Z,5011.88
2018-07-12T13:32:14.226Z,4893.75
2018-07-12T13:33:14.207Z,5130.00
2018-07-12T13:34:14.199Z,4646.25
2018-07-12T13:35:14.193Z,4314.38
2018-07-12T13:36:14.185Z,5355.00
2018-07-12T13:37:14.192Z,5591.25
2018-07-12T13:38:14.169Z,5810.63
2018-07-12T13:39:14.162Z,5850.00
2018-07-12T13:40:14.157Z,5113.13
2018-07-12T13:41:14.147Z,4494.38
2018-07-12T13:42:14.143Z,4809.38
2018-07-12T13:43:14.143Z,5248.13
2018-07-12T13:44:14.126Z,4786.88
2018-07-12T13:45:14.117Z,4578.75
2018-07-12T13:46:14.112Z,4393.13
2018-07-12T13:47:14.107Z,4539.38
2018-07-12T13:48:14.125Z,4573.13
2018-07-12T13:49:14.099Z,900.00
2018-07-12T13:50:14.087Z,708.75
2018-07-12T13:51:14.083Z,646.88
2018-07-12T13:52:14.113Z,641.25
2018-07-12T13:53:14.067Z,680.63
2018-07-12T13:54:14.077Z,736.88
2018-07-12T13:55:14.055Z,776.25
2018-07-12T13:56:14.047Z,793.13
2018-07-12T13:57:14.040Z,826.88
2018-07-12T13:58:14.038Z,888.75
2018-07-12T13:59:14.044Z,1029.38
2018-07-12T14:00:14.026Z,1203.75
2018-07-12T14:01:14.025Z,1338.75
2018-07-12T14:02:14.000Z,1569.38
2018-07-12T14:03:13.999Z,3796.88
2018-07-12T14:04:13.989Z,3763.13
2018-07-12T14:05:13.988Z,3667.50
2018-07-12T14:06:13.971Z,3847.50
2018-07-12T14:07:13.967Z,3898.13
2018-07-12T14:08:13.956Z,3791.25
2018-07-12T14:09:13.947Z,1833.75
2018-07-12T14:10:13.961Z,1783.13
2018-07-12T14:11:13.932Z,1479.38
2018-07-12T14:12:13.924Z,1440.00
2018-07-12T14:13:13.915Z,1496.25
2018-07-12T14:14:13.910Z,3290.63
2018-07-12T14:15:13.900Z,4190.63
2018-07-12T14:16:13.903Z,3937.50
2018-07-12T14:17:13.885Z,3076.88
2018-07-12T14:18:13.878Z,2936.25
2018-07-12T14:19:13.870Z,3830.63
2018-07-12T14:20:13.862Z,4021.88
2018-07-12T14:21:13.877Z,4275.00
2018-07-12T14:22:13.847Z,4213.13
2018-07-12T14:23:13.842Z,4083.75
2018-07-12T14:24:13.833Z,3915.00
2018-07-12T14:25:13.826Z,2165.63
2018-07-12T14:26:13.818Z,1096.88
2018-07-12T14:27:13.880Z,1215.00
2018-07-12T14:28:13.806Z,1096.88
2018-07-12T14:29:13.798Z,1018.13
2018-07-12T14:30:13.792Z,1074.38
2018-07-12T14:31:13.786Z,1434.38
2018-07-12T14:32:13.799Z,3622.50
2018-07-12T14:33:13.771Z,2756.25
2018-07-12T14:34:13.768Z,2480.63
2018-07-12T14:35:13.758Z,3397.50
2018-07-12T14:36:13.750Z,3678.75
2018-07-12T14:37:13.744Z,3870.00
2018-07-12T14:38:13.745Z,3841.88
2018-07-12T14:39:13.729Z,3858.75
2018-07-12T14:40:13.722Z,3870.00
2018-07-12T14:41:13.714Z,3757.50
2018-07-12T14:42:13.708Z,3645.00
2018-07-12T14:43:13.720Z,3774.38
2018-07-12T14:44:13.700Z,3841.88
2018-07-12T14:45:13.690Z,3729.38
2018-07-12T14:46:13.684Z,3633.75
2018-07-12T14:47:13.681Z,3678.75
2018-07-12T14:48:13.669Z,3487.50
2018-07-12T14:49:13.683Z,3245.63
2018-07-12T14:50:13.661Z,2896.88
2018-07-12T14:51:13.654Z,1288.13
2018-07-12T14:52:13.650Z,1170.00
2018-07-12T14:53:13.644Z,1091.25
2018-07-12T14:54:13.637Z,1006.88
2018-07-12T14:55:13.642Z,945.00
2018-07-12T14:56:13.625Z,939.38
2018-07-12T14:57:13.621Z,911.25
2018-07-12T14:58:13.613Z,905.63
2018-07-12T14:59:13.608Z,911.25
2018-07-12T15:00:13.618Z,905.63
2018-07-12T15:01:13.592Z,883.13
2018-07-12T15:02:13.587Z,860.63
2018-07-12T15:03:13.577Z,849.38
2018-07-12T15:04:13.569Z,832.50
2018-07-12T15:05:13.561Z,798.75
2018-07-12T15:06:13.564Z,765.00
2018-07-12T15:07:13.548Z,725.63
2018-07-12T15:08:13.538Z,691.88
2018-07-12T15:09:13.679Z,669.38
2018-07-12T15:10:13.519Z,658.13
2018-07-12T15:11:13.534Z,652.50
2018-07-12T15:12:13.503Z,663.75
2018-07-12T15:13:13.501Z,669.38
2018-07-12T15:14:13.484Z,658.13
2018-07-12T15:15:13.475Z,652.50
2018-07-12T15:16:13.465Z,652.50
2018-07-12T15:17:13.468Z,658.13
2018-07-12T15:18:13.448Z,669.38
2018-07-12T15:19:13.462Z,686.25
2018-07-12T15:20:13.432Z,714.38
2018-07-12T15:21:13.420Z,736.88
2018-07-12T15:22:13.427Z,759.38
2018-07-12T15:23:13.397Z,793.13
2018-07-12T15:24:13.389Z,821.25
2018-07-12T15:25:13.380Z,871.88
2018-07-12T15:26:13.422Z,916.88
2018-07-12T15:27:13.356Z,1012.50
2018-07-12T15:28:13.359Z,1366.88
2018-07-12T15:29:13.378Z,1648.13
2018-07-12T15:30:13.327Z,2278.13
2018-07-12T15:31:13.318Z,2109.38
2018-07-12T15:32:13.309Z,1963.13
2018-07-12T15:33:13.319Z,1586.25
2018-07-12T15:34:13.290Z,2103.75
2018-07-12T15:35:13.279Z,2469.38
2018-07-12T15:36:13.269Z,2520.00
2018-07-12T15:37:13.260Z,2548.13
2018-07-12T15:38:13.251Z,2531.25
2018-07-12T15:39:13.251Z,2553.75
2018-07-12T15:40:13.234Z,2604.38
2018-07-12T15:41:13.224Z,2694.38
2018-07-12T15:42:13.220Z,2643.75
2018-07-12T15:43:13.210Z,2638.13
2018-07-12T15:44:13.220Z,2683.13
2018-07-12T15:45:13.194Z,2632.50
2018-07-12T15:46:13.187Z,2638.13
2018-07-12T15:47:13.186Z,2536.88
2018-07-12T15:48:13.171Z,2610.00
2018-07-12T15:49:13.164Z,2553.75
2018-07-12T15:50:13.224Z,2531.25
2018-07-12T15:51:13.152Z,2536.88
2018-07-12T15:52:13.146Z,1985.63
2018-07-12T15:53:13.140Z,1873.13
2018-07-12T15:54:13.136Z,1524.38
2018-07-12T15:55:13.145Z,1575.00
2018-07-12T15:56:13.123Z,2430.00
2018-07-12T15:57:13.116Z,2373.75
2018-07-12T15:58:13.111Z,2396.25
2018-07-12T15:59:13.104Z,2418.75
2018-07-12T16:00:13.099Z,2413.13
2018-07-12T16:01:13.114Z,2210.63
2018-07-12T16:02:13.165Z,2598.75
2018-07-12T16:03:13.082Z,2621.25
2018-07-12T16:04:13.077Z,2475.00
2018-07-12T16:05:13.069Z,2385.00
2018-07-12T16:06:13.067Z,2559.38
2018-07-12T16:07:13.070Z,2503.13
2018-07-12T16:08:13.055Z,2536.88
2018-07-12T16:09:13.051Z,2497.50
2018-07-12T16:10:13.047Z,1980.00
2018-07-12T16:11:13.040Z,1417.50
2018-07-12T16:12:13.047Z,1631.25
2018-07-12T16:13:13.030Z,2233.13
2018-07-12T16:14:13.023Z,2413.13
2018-07-12T16:15:13.020Z,2553.75
2018-07-12T16:16:13.015Z,2565.00
2018-07-12T16:17:13.032Z,2548.13
2018-07-12T16:18:13.007Z,2643.75
2018-07-12T16:19:12.999Z,2581.88
2018-07-12T16:20:12.994Z,2626.88
2018-07-12T16:21:12.991Z,2565.00
2018-07-12T16:22:12.986Z,2491.88
2018-07-12T16:23:12.993Z,2581.88
2018-07-12T16:24:12.976Z,2553.75
2018-07-12T16:25:12.971Z,2508.75
2018-07-12T16:26:12.968Z,2424.38
2018-07-12T16:27:12.962Z,2446.88
2018-07-12T16:28:12.974Z,2497.50
2018-07-12T16:29:12.954Z,2430.00
2018-07-12T16:30:12.951Z,2396.25
2018-07-12T16:31:12.947Z,2441.25
2018-07-12T16:32:12.948Z,2295.00
2018-07-12T16:33:12.949Z,2334.38
2018-07-12T16:34:13.065Z,2289.38
2018-07-12T16:35:12.933Z,2306.25
2018-07-12T16:36:12.929Z,2295.00
2018-07-12T16:37:12.962Z,2193.75
2018-07-12T16:38:12.934Z,2221.88
2018-07-12T16:39:12.921Z,2205.00
2018-07-12T16:40:12.914Z,2199.38
2018-07-12T16:41:12.910Z,2143.13
2018-07-12T16:42:12.907Z,2176.88
2018-07-12T16:43:12.913Z,2148.75
2018-07-12T16:44:12.899Z,2148.75
2018-07-12T16:45:12.897Z,2182.50
2018-07-12T16:46:12.892Z,2227.50
2018-07-12T16:47:12.890Z,2233.13
2018-07-12T16:48:12.902Z,2205.00
2018-07-12T16:49:12.882Z,2188.13
2018-07-12T16:50:12.883Z,2154.38
2018-07-12T16:51:12.874Z,2154.38
2018-07-12T16:52:12.868Z,2182.50
2018-07-12T16:53:12.876Z,2148.75
2018-07-12T16:54:12.864Z,2086.88
2018-07-12T16:55:12.860Z,2086.88
2018-07-12T16:56:12.857Z,2064.38
2018-07-12T16:57:12.855Z,2058.75
2018-07-12T16:58:12.862Z,1957.50
2018-07-12T16:59:12.849Z,1935.00
2018-07-12T17:00:12.846Z,1912.50
2018-07-12T17:01:12.840Z,1901.25
2018-07-12T17:02:12.836Z,1873.13
2018-07-12T17:03:12.846Z,1878.75
2018-07-12T17:04:12.830Z,1878.75
2018-07-12T17:05:12.827Z,1839.38
2018-07-12T17:06:12.822Z,1873.13
2018-07-12T17:07:12.877Z,1856.25
2018-07-12T17:08:12.830Z,1856.25
2018-07-12T17:09:12.814Z,1856.25
2018-07-12T17:10:12.809Z,1749.38
2018-07-12T17:11:12.806Z,1670.63
2018-07-12T17:12:12.807Z,1659.38
2018-07-12T17:13:12.808Z,1693.13
2018-07-12T17:14:12.796Z,1648.13
2018-07-12T17:15:12.794Z,1620.00
2018-07-12T17:16:12.789Z,1614.38
2018-07-12T17:17:12.786Z,1485.00
2018-07-12T17:18:12.790Z,1501.88
2018-07-12T17:19:12.782Z,1501.88
2018-07-12T17:20:12.774Z,1524.38
2018-07-12T17:21:12.769Z,1451.25
2018-07-12T17:22:12.765Z,1479.38
2018-07-12T17:23:12.772Z,1350.00
2018-07-12T17:24:12.757Z,1181.25
2018-07-12T17:25:12.753Z,1170.00
2018-07-12T17:26:12.750Z,1192.50
2018-07-12T17:27:12.782Z,1170.00
2018-07-12T17:28:12.752Z,1209.38
2018-07-12T17:29:12.737Z,1057.50
2018-07-12T17:30:12.732Z,928.13
2018-07-12T17:31:12.726Z,990.00
2018-07-12T17:32:12.721Z,1125.00
2018-07-12T17:33:12.732Z,1164.38
2018-07-12T17:34:12.712Z,1164.38
2018-07-12T17:35:12.708Z,1153.13
2018-07-12T17:36:12.701Z,1119.38
2018-07-12T17:37:12.694Z,1068.75
2018-07-12T17:38:12.701Z,1057.50
2018-07-12T17:39:12.683Z,1057.50
2018-07-12T17:40:12.679Z,1057.50
2018-07-12T17:41:12.794Z,1040.63
2018-07-12T17:42:12.667Z,1040.63
2018-07-12T17:43:12.674Z,1006.88
2018-07-12T17:44:12.658Z,956.25
2018-07-12T17:45:12.649Z,855.00
2018-07-12T17:46:12.645Z,911.25
2018-07-12T17:47:12.689Z,911.25
2018-07-12T17:48:12.645Z,860.63
2018-07-12T17:49:12.628Z,866.25
2018-07-12T17:50:12.621Z,849.38
2018-07-12T17:51:12.616Z,860.63
2018-07-12T17:52:12.613Z,866.25
2018-07-12T17:53:12.613Z,866.25
2018-07-12T17:54:12.596Z,843.75
2018-07-12T17:55:12.591Z,798.75
2018-07-12T17:56:12.590Z,759.38
2018-07-12T17:57:12.580Z,691.88
2018-07-12T17:58:12.583Z,585.00
2018-07-12T17:59:12.567Z,466.88
2018-07-12T18:00:12.563Z,455.63
2018-07-12T18:01:12.550Z,489.38
2018-07-12T18:02:12.545Z,551.25
2018-07-12T18:03:12.546Z,478.13
2018-07-12T18:04:12.532Z,466.88
2018-07-12T18:05:12.613Z,433.13
2018-07-12T18:06:12.518Z,427.50
2018-07-12T18:07:12.507Z,421.88
2018-07-12T18:08:12.517Z,410.63
2018-07-12T18:09:12.494Z,410.63
2018-07-12T18:10:12.483Z,405.00
2018-07-12T18:11:12.475Z,399.38
2018-07-12T18:12:12.468Z,393.75
2018-07-12T18:13:12.461Z,388.13
2018-07-12T18:14:12.476Z,382.50
2018-07-12T18:15:12.441Z,382.50
2018-07-12T18:16:12.432Z,371.25
2018-07-12T18:17:12.423Z,371.25
2018-07-12T18:18:12.422Z,371.25
2018-07-12T18:19:12.417Z,371.25
2018-07-12T18:20:12.396Z,365.63
2018-07-12T18:21:12.390Z,360.00
2018-07-12T18:22:12.409Z,354.38
2018-07-12T18:23:12.370Z,354.38
2018-07-12T18:24:12.371Z,348.75
2018-07-12T18:25:12.354Z,343.13
2018-07-12T18:26:12.342Z,337.50
2018-07-12T18:27:12.334Z,337.50
2018-07-12T18:28:12.324Z,331.88
2018-07-12T18:29:12.322Z,326.25
2018-07-12T18:30:12.300Z,320.63
2018-07-12T18:31:12.291Z,320.63
2018-07-12T18:32:12.283Z,315.00
2018-07-12T18:33:12.272Z,309.38
2018-07-12T18:34:12.283Z,303.75
2018-07-12T18:35:12.323Z,298.13
2018-07-12T18:36:12.244Z,292.50
2018-07-12T18:37:12.233Z,281.25
2018-07-12T18:38:12.242Z,275.63
2018-07-12T18:39:12.223Z,264.38
2018-07-12T18:40:12.207Z,258.75
2018-07-12T18:41:12.192Z,247.50
2018-07-12T18:42:12.182Z,241.88
2018-07-12T18:43:12.171Z,230.63
2018-07-12T18:44:12.172Z,225.00
2018-07-12T18:45:12.153Z,213.75
2018-07-12T18:46:12.145Z,208.13
2018-07-12T18:47:12.130Z,202.50
2018-07-12T18:48:12.120Z,191.25
2018-07-12T18:49:12.119Z,180.00
2018-07-12T18:50:12.100Z,174.38
2018-07-12T18:51:12.088Z,168.75
2018-07-12T18:52:12.078Z,163.13
2018-07-12T18:53:12.066Z,151.88
2018-07-12T18:54:12.066Z,146.25
2018-07-12T18:55:12.046Z,140.63
2018-07-12T18:56:12.035Z,135.00
2018-07-12T18:57:12.078Z,129.38
2018-07-12T18:58:12.015Z,123.75
2018-07-12T18:59:12.017Z,123.75
2018-07-12T19:00:11.990Z,118.13
2018-07-12T19:01:11.979Z,112.50
2018-07-12T19:02:11.967Z,106.88
2018-07-12T19:03:11.956Z,106.88
2018-07-12T19:04:11.959Z,101.25
2018-07-12T19:05:11.934Z,101.25
2018-07-12T19:06:11.922Z,95.63
2018-07-12T19:07:11.913Z,95.63
2018-07-12T19:08:11.899Z,90.00
2018-07-12T19:09:11.899Z,84.38
2018-07-12T19:10:11.876Z,84.38
2018-07-12T19:11:11.864Z,78.75
2018-07-12T19:12:11.855Z,78.75
2018-07-12T19:13:11.841Z,73.13
2018-07-12T19:14:11.839Z,73.13
2018-07-12T19:15:11.915Z,67.50
2018-07-12T19:16:11.806Z,67.50
2018-07-12T19:17:11.798Z,61.88
2018-07-12T19:18:11.781Z,61.88
2018-07-12T19:19:11.782Z,56.25
2018-07-12T19:20:11.760Z,56.25
2018-07-12T19:21:11.745Z,50.63
2018-07-12T19:22:11.736Z,50.63
2018-07-12T19:23:11.723Z,45.00
2018-07-12T19:24:11.720Z,45.00
2018-07-12T19:25:11.700Z,45.00
2018-07-12T19:26:11.685Z,39.38
2018-07-12T19:27:11.672Z,39.38
2018-07-12T19:28:11.661Z,33.75
2018-07-12T19:29:11.665Z,33.75
2018-07-12T19:30:11.636Z,28.13
2018-07-12T19:31:11.622Z,28.13
2018-07-12T19:32:11.611Z,22.50
2018-07-12T19:33:11.597Z,22.50
2018-07-12T19:34:11.634Z,22.50
2018-07-12T19:35:11.788Z,16.88
2018-07-12T19:36:11.562Z,16.88
2018-07-12T19:37:11.550Z,16.88
2018-07-12T19:38:11.534Z,16.88
2018-07-12T19:39:11.537Z,11.25
2018-07-12T19:40:11.568Z,11.25
2018-07-12T19:41:11.499Z,11.25
2018-07-12T19:42:11.479Z,11.25
2018-07-12T19:43:11.471Z,11.25
2018-07-12T19:44:11.469Z,5.63
2018-07-12T19:45:11.449Z,5.63
2018-07-12T19:46:11.432Z,5.63
2018-07-12T19:47:11.489Z,5.63
2018-07-12T19:48:11.408Z,5.63
2018-07-12T19:49:11.404Z,5.63
2018-07-12T19:50:11.380Z,5.63
2018-07-12T19:51:11.369Z,5.63
2018-07-12T19:52:11.357Z,0.00
2018-07-12T19:53:11.341Z,0.00
2018-07-12T19:54:11.341Z,0.00
2018-07-12T19:55:11.316Z,0.00
2018-07-12T19:56:11.303Z,0.00
2018-07-12T19:57:11.290Z,0.00
2018-07-12T19:58:11.276Z,0.00
2018-07-12T19:59:11.275Z,0.00
2018-07-12T20:00:11.288Z,0.00
2018-07-12T20:01:11.254Z,0.00
2018-07-12T20:02:11.224Z,0.00
2018-07-12T20:03:11.212Z,0.00
2018-07-12T20:04:11.210Z,0.00
2018-07-12T20:05:11.186Z,0.00
2018-07-12T20:06:11.170Z,0.00
2018-07-12T20:07:11.158Z,0.00
2018-07-12T20:08:11.143Z,0.00
2018-07-12T20:09:11.140Z,0.00
2018-07-12T20:10:11.127Z,0.00
2018-07-12T20:11:11.104Z,0.00
2018-07-12T20:12:11.091Z,0.00
2018-07-12T20:13:11.076Z,0.00
2018-07-12T20:14:11.073Z,0.00
2018-07-12T20:15:11.052Z,0.00
2018-07-12T20:16:11.040Z,0.00
2018-07-12T20:17:11.023Z,0.00
2018-07-12T20:18:11.010Z,0.00
2018-07-12T20:19:11.008Z,0.00
2018-07-12T20:20:10.983Z,0.00
2018-07-12T20:21:10.969Z,0.00
2018-07-12T20:22:10.959Z,0.00
2018-07-12T20:23:10.945Z,0.00
2018-07-12T20:24:10.943Z,0.00
2018-07-12T20:25:10.943Z,0.00
2018-07-12T20:26:10.910Z,0.00
2018-07-12T20:27:10.889Z,0.00
2018-07-12T20:28:10.881Z,0.00
2018-07-12T20:29:10.872Z,0.00
2018-07-12T20:30:10.848Z,0.00
2018-07-12T20:31:10.904Z,0.00
2018-07-12T20:32:10.820Z,0.00
2018-07-12T20:33:10.806Z,0.00
2018-07-12T20:34:10.804Z,0.00
2018-07-12T20:35:10.779Z,0.00
2018-07-12T20:36:10.767Z,0.00
2018-07-12T20:37:10.752Z,0.00
2018-07-12T20:38:10.738Z,0.00
2018-07-12T20:39:10.735Z,0.00
2018-07-12T20:40:10.708Z,0.00
2018-07-12T20:41:10.701Z,0.00
2018-07-12T20:42:10.682Z,0.00
2018-07-12T20:43:10.670Z,0.00
2018-07-12T20:44:10.667Z,0.00
2018-07-12T20:45:10.640Z,0.00
2018-07-12T20:46:10.628Z,0.00
2018-07-12T20:47:10.618Z,0.00
2018-07-12T20:48:10.640Z,0.00
2018-07-12T20:49:10.599Z,0.00
2018-07-12T20:50:10.643Z,0.00
2018-07-12T20:51:10.559Z,0.00
2018-07-12T20:52:10.544Z,0.00
2018-07-12T20:53:10.529Z,0.00
2018-07-12T20:54:10.527Z,0.00
2018-07-12T20:55:10.593Z,0.00
2018-07-12T20:56:10.490Z,0.00
2018-07-12T20:57:10.474Z,0.00
2018-07-12T20:58:10.460Z,0.00
2018-07-12T20:59:10.457Z,0.00
2018-07-12T21:00:10.434Z,0.00
2018-07-12T21:01:10.418Z,0.00
2018-07-12T21:02:10.406Z,0.00
2018-07-12T21:03:10.391Z,0.00
2018-07-12T21:04:10.388Z,0.00
2018-07-12T21:05:10.361Z,0.00
2018-07-12T21:06:10.348Z,0.00
2018-07-12T21:07:10.353Z,0.00
2018-07-12T21:08:10.323Z,0.00
2018-07-12T21:09:10.317Z,0.00
2018-07-12T21:10:10.294Z,0.00
2018-07-12T21:11:10.279Z,0.00
2018-07-12T21:12:10.265Z,0.00
2018-07-12T21:13:10.250Z,0.00
2018-07-12T21:14:10.248Z,0.00
2018-07-12T21:15:10.221Z,0.00
2018-07-12T21:16:10.209Z,0.00
2018-07-12T21:17:10.194Z,0.00
2018-07-12T21:18:10.181Z,0.00
2018-07-12T21:19:10.177Z,0.00
2018-07-12T21:20:10.151Z,0.00
2018-07-12T21:21:10.137Z,0.00
2018-07-12T21:22:10.125Z,0.00
2018-07-12T21:23:10.110Z,0.00
2018-07-12T21:24:10.106Z,0.00
2018-07-12T21:25:10.082Z,0.00
2018-07-12T21:26:10.069Z,0.00
2018-07-12T21:27:10.053Z,0.00
2018-07-12T21:28:10.039Z,0.00
2018-07-12T21:29:10.035Z,0.00
2018-07-12T21:30:10.013Z,0.00
2018-07-12T21:31:09.996Z,0.00
2018-07-12T21:32:09.990Z,0.00
2018-07-12T21:33:10.037Z,0.00
2018-07-12T21:34:09.964Z,0.00
2018-07-12T21:35:09.941Z,0.00
2018-07-12T21:36:09.924Z,0.00
2018-07-12T21:37:09.912Z,0.00
2018-07-12T21:38:09.895Z,0.00
2018-07-12T21:39:09.891Z,0.00
2018-07-12T21:40:09.867Z,0.00
2018-07-12T21:41:09.852Z,0.00
2018-07-12T21:42:09.842Z,0.00
2018-07-12T21:43:09.824Z,0.00
2018-07-12T21:44:09.821Z,0.00
2018-07-12T21:45:09.794Z,0.00
2018-07-12T21:46:09.781Z,0.00
2018-07-12T21:47:09.766Z,0.00
2018-07-12T21:48:09.752Z,0.00
2018-07-12T21:49:09.748Z,0.00
2018-07-12T21:50:09.722Z,0.00
2018-07-12T21:51:09.709Z,0.00
2018-07-12T21:52:09.695Z,0.00
2018-07-12T21:53:09.681Z,0.00
2018-07-12T21:54:09.676Z,0.00
2018-07-12T21:55:09.662Z,0.00
2018-07-12T21:56:09.638Z,0.00
2018-07-12T21:57:09.630Z,0.00
2018-07-12T21:58:09.606Z,0.00
2018-07-12T21:59:09.602Z,0.00
2018-07-12T22:00:09.577Z,0.00
2018-07-12T22:01:09.560Z,0.00
2018-07-12T22:02:09.549Z,0.00
2018-07-12T22:03:09.533Z,0.00
2018-07-12T22:04:09.527Z,0.00
2018-07-12T22:05:09.504Z,0.00
2018-07-12T22:06:09.491Z,0.00
2018-07-12T22:07:09.475Z,0.00
2018-07-12T22:08:09.458Z,0.00
2018-07-12T22:09:09.458Z,0.00
2018-07-12T22:10:09.430Z,0.00
2018-07-12T22:11:09.416Z,0.00
2018-07-12T22:12:09.400Z,0.00
2018-07-12T22:13:09.383Z,0.00
2018-07-12T22:14:09.365Z,0.00
2018-07-12T22:15:09.364Z,0.00
2018-07-12T22:16:09.339Z,0.00
2018-07-12T22:17:09.326Z,0.00
2018-07-12T22:18:09.327Z,0.00
2018-07-12T22:19:09.296Z,0.00
2018-07-12T22:20:09.290Z,0.00
2018-07-12T22:21:09.308Z,0.00
2018-07-12T22:22:09.250Z,0.00
2018-07-12T22:23:09.239Z,0.00
2018-07-12T22:24:09.220Z,0.00